Progranichnoe, Russia
Current Conditions -  °F | °C
As of 1:00 PM on Sunday 21 Dec 2014 (Local Time) from UHSS Reporting Station
Snow Showers Snow Showers  
Wind Chill:   Ceiling: 1100
Heat Index: 19°   Visibility: 1.3mi
Dew Point: 16°   Wind: 11mph
Humidity: 86%   Direction: 300°WNW
Pressure: 29.21"   Gusts: 22mph
Location:  50.4°N, 143.77°E
Report Text: UHSS 210200Z 30005G10MPS 2200 SHSN BKN011CB M07/M09 Q0989 NOSIGRMK MT OBSC QFE741/0988 01850328
Loading
Personal Weather Stations






























Interactive Weather Map New forecast layout! Learn more

10-Day Weather Forecast

Advertisements
Track Severe Weather on mobile